This is the latest recevied weather packets stored in our database for station/object E22ZMG-1. If no packets are shown the sender has not sent any weather packets the latest 1 day(s).
| Time | Temp. | Humidity | Pressure | Rain* | Wind** | Luminosity | Snow |
|---|---|---|---|---|---|---|---|
| 1778099386 | 31.67° C | 61% | 973 hPa | - | - | 0 W/m² | - |
| 1778095635 | 31.67° C | 61% | 973 hPa | - | - | 0 W/m² | - |
| 1778095008 | 31.67° C | 61% | 973 hPa | - | - | 0 W/m² | - |
| 1778094172 | 32.22° C | 57% | 973 hPa | - | - | 0 W/m² | - |
| 1778092296 | 32.78° C | 55% | 973 hPa | - | - | 0 W/m² | - |
| 1778091670 | 33.33° C | 53% | 973 hPa | - | - | 0 W/m² | - |
| 1778091045 | 33.89° C | 52% | 973 hPa | - | - | 0 W/m² | - |
| 1778084872 | 35° C | 47% | 974 hPa | - | - | 0 W/m² | - |
| 1778082268 | 35° C | 46% | 974 hPa | - | - | 0 W/m² | - |
| 1778081018 | 35.56° C | 45% | 973 hPa | - | - | 0 W/m² | - |
| 1778079766 | 35.56° C | 45% | 974 hPa | - | - | 0 W/m² | - |
| 1778078516 | 35° C | 48% | 973 hPa | - | - | 0 W/m² | - |
| 1778074140 | 37.22° C | 42% | 971 hPa | - | - | 0 W/m² | - |
| 1778073515 | 37.22° C | 43% | 971 hPa | - | - | 0 W/m² | - |
| 1778071639 | 38.33° C | 40% | 971 hPa | - | - | 0 W/m² | - |
| 1778069763 | 38.33° C | 44% | 971 hPa | - | - | 0 W/m² | - |
| 1778069138 | 38.89° C | 42% | 971 hPa | - | - | 0 W/m² | - |
| 1778068513 | 38.89° C | 43% | 971 hPa | - | - | 0 W/m² | - |
| 1778067887 | 39.44° C | 42% | 970 hPa | - | - | 0 W/m² | - |
| 1778067261 | 38.89° C | 42% | 970 hPa | - | - | 0 W/m² | - |
| 1778066012 | 39.44° C | 41% | 970 hPa | - | - | 0 W/m² | - |
| 1778064137 | 39.44° C | 41% | 970 hPa | - | - | 0 W/m² | - |
| 1778062886 | 38.89° C | 41% | 970 hPa | - | - | 0 W/m² | - |
| 1778062261 | 38.89° C | 41% | 970 hPa | - | - | 0 W/m² | - |
| 1778061636 | 38.33° C | 42% | 970 hPa | - | - | 0 W/m² | - |
* Rain since midnight (hover to see other rain measurements)
** Current wind speed in m/s (hover to see current wind gust speed)